To NAV CANADA Home Page Login to a new session Search on AWWS site Feedback and Comments Disclaimer Vers la page française équivalente Tips FAQ What's new on the site To the Forecasts and Observations / NOTAM section To "File a Flight Plan" website Publications and other links Update of the User's profile FIC Telephone Numbers My Weather Data Folder Route Weather Data Regional Weather Data Local Weather Data To the Forecasts and Observations / NOTAM section
Request Generated 04/23/2014 at 09:46:03 UTC . Weather information available at that time is displayed.

METAR/TAF

SCHEFFERVILLE/QC    (show WxCam)

SPECI CYKL 230941Z AUTO 05003KT 020V100 3SM -SN SCT006 OVC014 M03/M03
A2974 RMK SLP098=
SPECI CYKL 230933Z AUTO VRB02KT 5SM -SN BKN004 OVC014 M02/M03 A2974
RMK SLP098=
SPECI CYKL 230929Z AUTO 06003KT 030V100 6SM -SN BKN004 OVC011 M02/M03
A2973 RMK SLP097=
SPECI CYKL 230922Z AUTO 07004KT 3SM -SN BKN004 OVC011 M02/M03 A2973
RMK SLP097=
SPECI CYKL 230917Z AUTO 06004KT 030V090 2SM -SN OVC004 M02/M03 A2973
RMK SLP096=
SPECI CYKL 230902Z AUTO 05004KT 2SM -SN OVC004 M02/M02 A2973 RMK
SLP095=
SPECI CYKL 230903Z AUTO 05004KT 1 3/4SM -SN OVC004 M02/M02 A2973 RMK
SLP095=
METAR CYKL 230900Z AUTO 04003KT 3SM -SN OVC004 M02/M02 A2973 RMK
SLP094=
SPECI CYKL 230833Z AUTO 05003KT 3SM -SN OVC004 M01/M02 A2972 RMK
SLP093=
SPECI CYKL 230827Z AUTO 07004KT 030V100 2SM -SN OVC004 M01/M02 A2972
RMK VIS VRB 1 1/2-3 SLP093=
SPECI CYKL 230823Z AUTO 05003KT 030V100 1 3/4SM -SN OVC004 M01/M02
A2972 RMK SLP092=
SPECI CYKL 230816Z AUTO VRB02KT 2 1/4SM -SN OVC004 M01/M02 A2972 RMK
SLP092=
METAR CYKL 230800Z AUTO 34002KT 3SM -SN OVC006 M02/M02 A2972 RMK
SLP091=
SPECI CYKL 230759Z AUTO 34002KT 3SM -SN OVC006 M02/M02 A2972 RMK
SLP091=
SPECI CYKL 230756Z AUTO 35002KT 2SM -SN OVC006 M02/M02 A2972 RMK
SLP091=
SPECI CYKL 230715Z AUTO 00000KT 1 3/4SM -SN OVC006 M02/M02 A2971 RMK
SLP088=
SPECI CYKL 230713Z AUTO 00000KT 2 1/4SM -SN OVC006 M02/M02 A2971 RMK
SLP088=
SPECI CYKL 230708Z AUTO 00000KT 3SM -SN OVC006 M02/M02 A2971 RMK
SLP088=
SPECI CYKL 230704Z AUTO 00000KT 2SM -SN OVC006 M02/M02 A2971 RMK
SLP088=
METAR CYKL 230700Z AUTO 00000KT 1 3/4SM -SN BKN006 OVC013 M02/M02
A2971 RMK SLP088=

TAF CYKL 230738Z 2308/2320 VRB03KT 6SM -SN SCT012 OVC030 TEMPO
2308/2318 11/2SM -SN BKN012 OVC030
BECMG 2310/2312 12007KT
FM231800 11007KT P6SM BKN015 OVC060
RMK FCST BASED ON AUTO OBS. NXT FCST BY 231400Z=
Your time UTC time
Weather data provided by Environment Canada and NAV CANADA